Time;durP1;ratioP1;P1;durP2;ratioP2;P2;SDS_P1;SDS_P2;PMS_P1;PMS_P2;Temp;Humidity;BMP_temperature;BMP_pressure;BME280_temperature;BME280_humidity;BME280_pressure;Samples;Min_cycle;Max_cycle;Signal;HPM_P1;HPM_P2
2023/02/17 00:01:40;;;;;;;113.13;60.83;;;;;;;6.28;100.00;101031.84;5022793;28;20037;-76
2023/02/17 00:04:06;;;;;;;111.00;60.77;;;;;;;6.27;100.00;101027.50;5024063;28;20112;-76
2023/02/17 00:06:31;;;;;;;112.70;61.70;;;;;;;6.34;100.00;101041.09;4992012;28;20159;-77
2023/02/17 00:08:58;;;;;;;108.37;59.80;;;;;;;6.39;100.00;101038.06;5023571;28;20357;-76
2023/02/17 00:11:25;;;;;;;102.03;57.05;;;;;;;6.40;100.00;101034.47;5010075;28;20294;-76
2023/02/17 00:13:51;;;;;;;107.70;60.75;;;;;;;6.39;100.00;101030.97;5010030;28;20057;-76
2023/02/17 00:16:20;;;;;;;102.10;57.13;;;;;;;6.46;100.00;101032.13;5027847;28;20042;-76
2023/02/17 00:18:50;;;;;;;100.97;55.83;;;;;;;6.46;100.00;101020.66;5027830;28;20120;-76
2023/02/17 00:21:18;;;;;;;104.28;60.88;;;;;;;6.53;100.00;101020.03;5027037;28;20479;-76
2023/02/17 00:23:45;;;;;;;102.13;61.35;;;;;;;6.52;100.00;101012.19;5027706;28;20593;-76
2023/02/17 00:26:11;;;;;;;98.22;55.92;;;;;;;6.55;100.00;101009.28;5021322;28;20076;-76
2023/02/17 00:28:37;;;;;;;;;;;;;;;6.60;100.00;101009.72;5026940;28;20095;-76
2023/02/17 00:31:13;;;;;;;99.00;55.08;;;;;;;6.57;100.00;100999.38;5009710;28;19917;-76
2023/02/17 00:33:38;;;;;;;97.70;55.75;;;;;;;6.55;100.00;100990.72;5009770;28;20441;-76
2023/02/17 00:36:11;;;;;;;102.70;60.10;;;;;;;6.52;100.00;100985.66;5026083;28;20095;-76
2023/02/17 00:38:36;;;;;;;94.70;55.63;;;;;;;6.58;100.00;100990.47;5009788;28;20431;-76
2023/02/17 00:41:02;;;;;;;104.70;59.47;;;;;;;6.58;100.00;100985.16;5025916;28;20040;-76
2023/02/17 00:43:29;;;;;;;96.38;56.00;;;;;;;6.55;100.00;100977.44;5010172;28;20049;-77
2023/02/17 00:45:55;;;;;;;105.27;58.33;;;;;;;6.53;100.00;100971.41;5007158;28;20122;-76
2023/02/17 00:48:21;;;;;;;103.68;58.97;;;;;;;6.51;100.00;100970.75;4993291;28;20046;-76
2023/02/17 00:50:46;;;;;;;102.30;57.35;;;;;;;6.49;100.00;100964.72;5025776;28;20041;-76
2023/02/17 00:53:11;;;;;;;106.27;61.50;;;;;;;6.50;100.00;100961.91;5027299;28;20025;-76
2023/02/17 00:55:39;;;;;;;107.57;61.45;;;;;;;6.53;100.00;100966.97;5026805;28;20282;-76
2023/02/17 00:58:04;;;;;;;103.83;58.90;;;;;;;6.51;100.00;100955.66;5027259;28;20108;-76
2023/02/17 01:00:29;;;;;;;99.77;58.93;;;;;;;6.51;100.00;100939.75;5025498;28;20171;-76
2023/02/17 01:02:55;;;;;;;102.93;58.20;;;;;;;6.54;100.00;100944.78;5008981;28;20037;-76
2023/02/17 01:05:21;;;;;;;;;;;;;;;6.56;100.00;100944.66;4993345;28;20043;-76
2023/02/17 01:07:46;;;;;;;111.32;61.40;;;;;;;6.53;100.00;100928.97;4992893;28;20456;-76
2023/02/17 01:10:13;;;;;;;118.33;61.13;;;;;;;6.57;100.00;100934.88;5009213;28;20183;-76
2023/02/17 01:12:38;;;;;;;106.50;58.28;;;;;;;6.57;100.00;100927.75;5025327;28;20037;-76
2023/02/17 01:15:04;;;;;;;113.00;60.73;;;;;;;6.55;100.00;100924.38;5026638;28;20033;-76
2023/02/17 01:17:29;;;;;;;103.13;60.28;;;;;;;6.62;100.00;100922.88;5025663;28;20037;-76
2023/02/17 01:19:56;;;;;;;99.23;59.53;;;;;;;6.63;100.00;100921.94;5026045;28;20060;-76
2023/02/17 01:22:21;;;;;;;99.97;60.85;;;;;;;6.59;100.00;100914.38;5008824;28;20030;-76
2023/02/17 01:24:46;;;;;;;105.23;60.00;;;;;;;6.59;100.00;100917.03;4992633;28;20726;-76
2023/02/17 01:27:12;;;;;;;107.80;60.00;;;;;;;6.61;100.00;100907.13;5008672;28;21243;-76
2023/02/17 01:29:37;;;;;;;107.97;62.97;;;;;;;6.61;100.00;100901.81;5025237;28;20037;-76
2023/02/17 01:32:03;;;;;;;106.23;60.53;;;;;;;6.62;100.00;100898.19;5008429;28;20033;-76
2023/02/17 01:34:28;;;;;;;106.68;60.03;;;;;;;6.68;100.00;100898.47;5024986;28;20083;-76
2023/02/17 01:36:53;;;;;;;96.33;54.83;;;;;;;6.64;100.00;100897.06;5025791;28;20033;-73
2023/02/17 01:39:19;;;;;;;109.77;61.50;;;;;;;6.68;100.00;100884.38;5026249;28;20036;-73
2023/02/17 01:41:45;;;;;;;106.55;59.03;;;;;;;6.64;100.00;100878.50;5024563;28;20036;-73
2023/02/17 01:44:19;;;;;;;112.18;60.78;;;;;;;6.70;100.00;100874.47;4992271;28;20025;-73
2023/02/17 01:46:46;;;;;;;98.32;57.47;;;;;;;6.71;100.00;100870.84;5003480;28;20037;-75
2023/02/17 01:49:25;;;;;;;101.28;57.17;;;;;;;6.75;100.00;100859.81;5020473;28;20021;-76
2023/02/17 01:51:58;;;;;;;100.32;56.05;;;;;;;6.71;100.00;100847.78;5025829;28;20041;-76
2023/02/17 01:54:29;;;;;;;93.53;55.90;;;;;;;6.76;100.00;100840.25;4992097;28;20040;-76
2023/02/17 01:56:58;;;;;;;88.88;52.35;;;;;;;6.79;100.00;100835.66;5024238;28;20068;-76
2023/02/17 01:59:23;;;;;;;94.93;55.30;;;;;;;6.78;100.00;100826.88;5008030;28;20021;-75
2023/02/17 02:01:53;;;;;;;94.53;54.53;;;;;;;6.78;100.00;100826.03;5009821;28;20037;-76
2023/02/17 02:04:23;;;;;;;99.63;54.45;;;;;;;6.82;100.00;100820.31;5024416;28;20076;-76
2023/02/17 02:06:48;;;;;;;98.93;56.33;;;;;;;6.80;100.00;100810.81;5007885;28;20048;-76
2023/02/17 02:09:21;;;;;;;96.22;54.08;;;;;;;6.81;100.00;100812.50;4995659;28;20053;-76
2023/02/17 02:11:50;;;;;;;94.10;51.22;;;;;;;6.86;100.00;100805.81;5023911;28;20079;-76
2023/02/17 02:14:18;;;;;;;92.00;54.08;;;;;;;6.88;100.00;100805.66;5019310;28;20042;-76
2023/02/17 02:16:55;;;;;;;94.47;53.53;;;;;;;6.82;100.00;100787.66;5031053;28;20033;-76
2023/02/17 02:19:50;;;;;;;85.10;49.33;;;;;;;6.91;100.00;100800.09;5019964;28;20116;-76
2023/02/17 02:22:34;;;;;;;90.28;52.78;;;;;;;6.90;100.00;100785.13;5018888;28;20128;-76
2023/02/17 02:25:47;;;;;;;86.45;49.67;;;;;;;6.92;100.00;100788.50;5018007;28;20067;-76
2023/02/17 02:28:43;;;;;;;89.35;50.88;;;;;;;6.89;100.00;100786.13;4947574;28;20321;-75
2023/02/17 02:31:10;;;;;;;;;;;;;;;6.86;100.00;100789.03;4947685;28;20086;-75
2023/02/17 02:33:56;;;;;;;84.97;44.67;;;;;;;6.89;100.00;100779.00;4963420;28;19949;-76
2023/02/17 02:36:28;;;;;;;81.25;46.80;;;;;;;6.92;100.00;100784.00;4943474;28;20038;-76
2023/02/17 02:39:02;;;;;;;84.00;45.28;;;;;;;6.96;100.00;100781.94;4947352;28;20502;-76
2023/02/17 02:41:35;;;;;;;79.65;46.45;;;;;;;6.96;100.00;100769.50;4947480;28;20351;-76
2023/02/17 02:44:07;;;;;;;80.22;46.80;;;;;;;6.95;100.00;100740.44;4946454;28;20042;-76
2023/02/17 02:46:33;;;;;;;84.32;47.97;;;;;;;6.95;100.00;100743.06;4963403;28;20992;-76
2023/02/17 02:48:59;;;;;;;85.60;47.83;;;;;;;6.97;100.00;100741.13;4963701;28;20026;-76
2023/02/17 02:52:00;;;;;;;74.95;41.60;;;;;;;6.98;100.00;100735.69;4928028;29;20126;-76
2023/02/17 02:54:44;;;;;;;74.70;42.28;;;;;;;7.06;100.00;100739.47;4943306;28;20034;-76
2023/02/17 02:57:25;;;;;;;73.03;40.95;;;;;;;7.04;100.00;100728.13;4957754;28;20047;-76
2023/02/17 03:00:19;;;;;;;82.10;44.05;;;;;;;7.13;100.00;100730.78;4930848;28;20043;-76
2023/02/17 03:03:28;;;;;;;75.63;41.75;;;;;;;7.12;100.00;100718.50;4949986;28;20133;-76
2023/02/17 03:06:12;;;;;;;75.22;41.35;;;;;;;7.04;100.00;100710.38;5007316;28;20539;-76
2023/02/17 03:08:45;;;;;;;76.85;39.72;;;;;;;7.08;100.00;100714.44;5023650;28;20052;-76
2023/02/17 03:11:12;;;;;;;69.28;39.00;;;;;;;7.09;100.00;100718.75;5017549;28;20402;-76
2023/02/17 03:13:39;;;;;;;74.85;40.17;;;;;;;7.12;100.00;100715.84;4990754;28;20480;-76
2023/02/17 03:16:07;;;;;;;65.25;38.67;;;;;;;7.13;100.00;100709.53;5006975;28;20142;-76
2023/02/17 03:18:34;;;;;;;61.08;34.97;;;;;;;7.15;100.00;100702.28;4990450;28;20041;-76
2023/02/17 03:21:13;;;;;;;65.68;36.03;;;;;;;7.14;100.00;100697.97;5023361;28;20037;-76
2023/02/17 03:23:40;;;;;;;58.55;33.88;;;;;;;7.19;100.00;100701.03;5006993;28;20040;-76
2023/02/17 03:26:05;;;;;;;56.70;32.57;;;;;;;7.19;100.00;100706.34;5024641;28;20374;-76
2023/02/17 03:28:30;;;;;;;58.83;31.93;;;;;;;7.21;100.00;100697.38;4990781;28;20060;-76
2023/02/17 03:30:56;;;;;;;58.55;30.15;;;;;;;7.23;100.00;100703.38;5023060;28;20029;-76
2023/02/17 03:33:22;;;;;;;52.13;31.23;;;;;;;7.24;100.00;100705.09;5023521;28;20049;-75
2023/02/17 03:35:47;;;;;;;48.70;29.77;;;;;;;7.32;100.00;100706.03;4990622;28;20041;-76
2023/02/17 03:38:12;;;;;;;43.47;26.57;;;;;;;7.30;100.00;100700.00;5023528;28;20025;-74
2023/02/17 03:40:38;;;;;;;43.10;26.33;;;;;;;7.33;100.00;100699.75;5007212;28;20550;-75
2023/02/17 03:43:03;;;;;;;47.67;27.30;;;;;;;7.29;100.00;100689.56;5008058;28;20128;-76
2023/02/17 03:45:28;;;;;;;46.30;27.17;;;;;;;7.28;100.00;100702.00;5028697;28;20041;-75
2023/02/17 03:47:54;;;;;;;45.67;25.57;;;;;;;7.31;100.00;100700.88;5029227;28;20111;-75
2023/02/17 03:50:19;;;;;;;45.67;25.67;;;;;;;7.38;100.00;100701.97;5029126;28;20379;-75
2023/02/17 03:52:45;;;;;;;48.50;26.07;;;;;;;7.29;100.00;100690.38;5028924;28;20033;-75
2023/02/17 03:55:10;;;;;;;46.20;25.40;;;;;;;7.35;100.00;100681.00;5027352;28;20081;-76
2023/02/17 03:57:36;;;;;;;;;;;;;;;7.35;100.00;100683.66;5011136;28;20568;-75
2023/02/17 04:00:04;;;;;;;43.30;23.98;;;;;;;7.36;100.00;100677.38;5028244;28;19921;-76
2023/02/17 04:02:38;;;;;;;;;;;;;;;7.42;100.00;100682.09;5028281;28;20049;-76
2023/02/17 04:05:03;;;;;;;43.30;22.98;;;;;;;7.42;100.00;100681.28;5027794;28;20362;-75
2023/02/17 04:07:29;;;;;;;41.72;24.00;;;;;;;7.41;100.00;100677.78;5026710;28;20041;-75
2023/02/17 04:09:54;;;;;;;46.77;26.30;;;;;;;7.41;100.00;100669.81;5018097;28;20471;-76
2023/02/17 04:12:19;;;;;;;43.07;24.60;;;;;;;7.40;100.00;100676.13;5026452;28;20042;-75
2023/02/17 04:14:45;;;;;;;44.07;23.47;;;;;;;7.39;100.00;100666.47;5027473;28;20041;-74
2023/02/17 04:17:10;;;;;;;40.40;22.37;;;;;;;7.52;100.00;100674.13;5027830;28;20038;-73
2023/02/17 04:19:35;;;;;;;38.47;22.57;;;;;;;7.49;100.00;100661.97;5027659;28;20029;-73
2023/02/17 04:22:01;;;;;;;41.67;23.10;;;;;;;7.49;100.00;100661.97;5026538;28;20132;-73
2023/02/17 04:24:26;;;;;;;37.73;22.50;;;;;;;7.50;100.00;100655.66;5026755;28;20328;-73
2023/02/17 04:26:52;;;;;;;37.33;21.40;;;;;;;7.49;100.00;100642.53;5026480;28;20524;-72
2023/02/17 04:29:17;;;;;;;37.42;21.33;;;;;;;7.47;100.00;100632.06;5027574;28;20068;-74
2023/02/17 04:31:42;;;;;;;39.40;21.23;;;;;;;7.55;100.00;100631.31;5026393;28;20033;-73
2023/02/17 04:34:08;;;;;;;38.83;21.07;;;;;;;7.55;100.00;100631.31;5026367;28;20052;-74
2023/02/17 04:36:33;;;;;;;37.57;20.80;;;;;;;7.59;100.00;100625.56;5027448;28;20514;-73
2023/02/17 04:38:58;;;;;;;38.87;21.50;;;;;;;7.62;100.00;100635.06;5027493;28;20497;-73
2023/02/17 04:41:24;;;;;;;36.23;20.73;;;;;;;7.59;100.00;100624.75;4993327;28;20376;-73
2023/02/17 04:43:49;;;;;;;35.53;20.97;;;;;;;7.63;100.00;100614.66;5021778;28;20041;-74
2023/02/17 04:46:14;;;;;;;41.07;22.53;;;;;;;7.64;100.00;100601.22;5009750;28;20047;-73
2023/02/17 04:48:40;;;;;;;39.13;21.92;;;;;;;7.67;100.00;100598.25;5007027;28;20076;-73
2023/02/17 04:51:05;;;;;;;33.30;20.23;;;;;;;7.70;100.00;100605.09;5009669;28;20036;-73
2023/02/17 04:53:31;;;;;;;39.03;21.77;;;;;;;7.67;100.00;100594.78;4992947;28;20136;-73
2023/02/17 04:55:56;;;;;;;41.20;22.92;;;;;;;7.70;100.00;100587.34;5008559;28;20123;-73
2023/02/17 04:58:22;;;;;;;39.40;21.87;;;;;;;7.72;100.00;100593.34;5026814;28;20491;-73
2023/02/17 05:00:48;;;;;;;42.40;22.07;;;;;;;7.72;100.00;100595.16;5027308;28;20072;-73
2023/02/17 05:03:14;;;;;;;46.17;24.48;;;;;;;7.73;100.00;100586.22;5027164;28;20051;-73
2023/02/17 05:05:40;;;;;;;46.92;23.70;;;;;;;7.73;100.00;100572.94;5027143;28;20479;-74
2023/02/17 05:08:05;;;;;;;43.30;23.70;;;;;;;7.73;100.00;100572.94;5025824;28;20045;-73
2023/02/17 05:10:31;;;;;;;41.20;23.33;;;;;;;7.73;100.00;100572.94;5025651;28;20048;-73
2023/02/17 05:12:56;;;;;;;47.63;24.30;;;;;;;7.69;100.00;100571.56;4996642;28;20044;-73
2023/02/17 05:15:21;;;;;;;46.63;23.87;;;;;;;7.68;100.00;100567.22;5027373;28;20264;-73
2023/02/17 05:17:47;;;;;;;41.87;22.33;;;;;;;7.67;100.00;100565.53;5026262;28;20038;-73
2023/02/17 05:20:12;;;;;;;42.07;21.63;;;;;;;7.70;100.00;100568.75;5026415;28;20049;-73
2023/02/17 05:22:38;;;;;;;36.25;20.30;;;;;;;7.70;100.00;100562.59;5009613;28;20127;-74
2023/02/17 05:25:04;;;;;;;42.42;22.15;;;;;;;7.67;100.00;100557.56;5026408;28;20026;-73
2023/02/17 05:27:30;;;;;;;45.63;21.85;;;;;;;7.71;100.00;100557.13;5026274;28;20491;-73
2023/02/17 05:29:55;;;;;;;39.90;19.98;;;;;;;7.65;100.00;100555.06;5020622;28;20025;-73
2023/02/17 05:32:22;;;;;;;36.73;18.87;;;;;;;7.73;100.00;100551.69;5026602;28;20029;-73
2023/02/17 05:34:47;;;;;;;42.88;20.50;;;;;;;7.71;100.00;100554.47;4996126;28;20038;-73
2023/02/17 05:37:12;;;;;;;50.13;21.43;;;;;;;7.75;100.00;100545.22;5026348;28;20056;-74
2023/02/17 05:39:38;;;;;;;41.23;21.43;;;;;;;7.73;100.00;100530.41;5008730;28;20387;-74
2023/02/17 05:42:03;;;;;;;44.90;20.07;;;;;;;7.69;100.00;100524.56;5024763;28;20034;-74
2023/02/17 05:44:29;;;;;;;40.10;21.70;;;;;;;7.73;100.00;100530.41;5008619;28;20045;-74
2023/02/17 05:46:54;;;;;;;48.17;20.63;;;;;;;7.74;100.00;100538.22;5020772;28;20052;-74
2023/02/17 05:49:19;;;;;;;50.20;21.90;;;;;;;7.73;100.00;100541.06;5026392;28;20325;-74
2023/02/17 05:51:45;;;;;;;44.60;20.73;;;;;;;7.77;100.00;100529.09;5025952;28;20079;-74
2023/02/17 05:54:10;;;;;;;42.27;20.87;;;;;;;7.74;100.00;100524.94;5002530;28;20105;-74
2023/02/17 05:56:35;;;;;;;44.00;21.90;;;;;;;7.72;100.00;100513.63;5008735;28;20025;-74
2023/02/17 05:59:01;;;;;;;43.20;20.27;;;;;;;7.80;100.00;100510.22;5025574;28;20491;-74
2023/02/17 06:01:27;;;;;;;47.87;21.17;;;;;;;7.79;100.00;100511.19;5026449;28;21017;-74
2023/02/17 06:03:52;;;;;;;42.40;19.17;;;;;;;7.77;100.00;100516.69;5026486;28;20106;-74
2023/02/17 06:06:18;;;;;;;39.67;19.37;;;;;;;7.79;100.00;100497.91;5025270;28;20041;-74
2023/02/17 06:08:43;;;;;;;38.60;19.57;;;;;;;7.84;100.00;100500.94;5025214;28;20091;-75
2023/02/17 06:11:08;;;;;;;39.20;18.60;;;;;;;7.81;100.00;100486.13;5026277;28;20490;-74
2023/02/17 06:13:34;;;;;;;40.03;19.20;;;;;;;7.88;100.00;100480.22;5025269;28;20053;-74
2023/02/17 06:15:59;;;;;;;34.03;16.67;;;;;;;7.88;100.00;100488.19;5026479;28;20510;-74
2023/02/17 06:18:25;;;;;;;33.08;17.58;;;;;;;7.89;100.00;100476.56;5008829;28;20050;-74
2023/02/17 06:20:54;;;;;;;32.43;14.97;;;;;;;7.88;100.00;100475.75;5024108;28;20120;-74
2023/02/17 06:23:19;;;;;;;35.25;16.73;;;;;;;7.89;100.00;100477.44;5008501;28;20104;-74
2023/02/17 06:25:47;;;;;;;34.07;16.90;;;;;;;7.87;100.00;100474.09;5008783;28;20068;-74
2023/02/17 06:28:13;;;;;;;33.08;16.13;;;;;;;7.88;100.00;100474.91;5023070;28;20029;-77
2023/02/17 06:30:38;;;;;;;28.93;15.07;;;;;;;7.89;100.00;100465.94;5028499;28;20060;-77
2023/02/17 06:33:03;;;;;;;30.37;14.87;;;;;;;7.88;100.00;100459.78;5029410;28;20294;-77
2023/02/17 06:35:29;;;;;;;31.83;14.93;;;;;;;7.93;100.00;100449.53;5028825;28;20074;-77
2023/02/17 06:37:54;;;;;;;28.67;14.73;;;;;;;7.96;100.00;100448.38;4994280;28;20018;-77
2023/02/17 06:40:20;;;;;;;30.30;15.17;;;;;;;7.99;100.00;100440.97;5008634;28;20556;-76
2023/02/17 06:42:45;;;;;;;31.37;15.80;;;;;;;7.95;100.00;100438.75;5026316;28;20029;-76
2023/02/17 06:45:10;;;;;;;30.87;15.67;;;;;;;7.97;100.00;100444.75;4992807;28;20333;-76
2023/02/17 06:47:36;;;;;;;35.03;17.83;;;;;;;7.99;100.00;100445.44;5021017;28;20094;-76
2023/02/17 06:50:01;;;;;;;31.23;15.07;;;;;;;8.01;100.00;100449.63;5008892;28;20029;-77
2023/02/17 06:52:27;;;;;;;33.53;16.55;;;;;;;7.98;100.00;100439.31;5026114;28;20041;-77
2023/02/17 06:54:52;;;;;;;31.87;15.70;;;;;;;8.01;100.00;100439.00;5025223;28;20045;-76
2023/02/17 06:57:18;;;;;;;28.93;15.07;;;;;;;8.00;100.00;100437.28;5023860;28;20041;-76
2023/02/17 06:59:44;;;;;;;31.42;15.43;;;;;;;7.93;100.00;100428.25;4994067;28;20502;-77
2023/02/17 07:02:13;;;;;;;40.10;16.37;;;;;;;7.96;100.00;100425.31;5025396;28;20039;-77
2023/02/17 07:04:40;;;;;;;36.65;17.45;;;;;;;7.92;100.00;100423.94;5026776;28;20037;-77
2023/02/17 07:07:06;;;;;;;37.90;16.95;;;;;;;7.96;100.00;100425.31;5025789;28;20033;-77
2023/02/17 07:09:31;;;;;;;39.42;17.75;;;;;;;7.96;100.00;100435.09;5009138;28;20643;-76
2023/02/17 07:11:57;;;;;;;35.40;17.43;;;;;;;7.97;100.00;100421.66;5024167;28;20030;-76
2023/02/17 07:14:23;;;;;;;37.07;16.10;;;;;;;7.95;100.00;100401.53;5008051;28;20037;-77
2023/02/17 07:16:49;;;;;;;38.75;17.73;;;;;;;7.95;100.00;100396.22;5019810;28;20499;-76
2023/02/17 07:19:14;;;;;;;39.27;18.37;;;;;;;7.98;100.00;100396.78;5024701;28;20029;-76
2023/02/17 07:21:41;;;;;;;40.00;17.02;;;;;;;8.02;100.00;100382.16;5024974;28;20713;-76
2023/02/17 07:24:06;;;;;;;34.63;16.77;;;;;;;8.02;100.00;100392.78;5007378;28;20037;-76
2023/02/17 07:26:35;;;;;;;36.83;17.13;;;;;;;8.07;100.00;100394.97;5024603;28;20602;-76
2023/02/17 07:29:01;;;;;;;39.55;17.33;;;;;;;8.02;100.00;100398.09;5007100;28;20037;-76
2023/02/17 07:31:26;;;;;;;34.40;14.87;;;;;;;7.97;100.00;100394.25;5006901;28;20446;-76
2023/02/17 07:33:51;;;;;;;35.60;16.17;;;;;;;7.96;100.00;100387.25;5024653;28;20482;-77
2023/02/17 07:36:17;;;;;;;37.33;18.73;;;;;;;8.01;100.00;100391.13;4990477;28;20041;-76
2023/02/17 07:38:42;;;;;;;31.50;15.30;;;;;;;8.02;100.00;100389.31;5024767;28;20295;-76
2023/02/17 07:41:11;;;;;;;38.05;17.15;;;;;;;8.01;100.00;100392.97;5024447;28;20116;-76
2023/02/17 07:43:37;;;;;;;37.53;17.17;;;;;;;8.00;100.00;100378.81;5023291;28;21204;-76
2023/02/17 07:46:04;;;;;;;39.47;17.02;;;;;;;7.99;100.00;100371.84;5009614;28;20045;-76
2023/02/17 07:48:29;;;;;;;42.70;18.52;;;;;;;7.91;100.00;100347.84;5006896;28;20421;-76
2023/02/17 07:50:55;;;;;;;38.60;17.90;;;;;;;7.90;100.00;100351.50;5022904;28;20483;-76
2023/02/17 07:53:20;;;;;;;45.13;19.60;;;;;;;7.92;100.00;100360.16;5008801;28;20033;-76
2023/02/17 07:55:45;;;;;;;46.17;20.83;;;;;;;7.96;100.00;100366.84;5006379;28;20548;-76
2023/02/17 07:58:11;;;;;;;40.43;17.47;;;;;;;8.01;100.00;100363.72;5006836;28;20298;-76
2023/02/17 08:00:36;;;;;;;43.67;18.83;;;;;;;7.98;100.00;100348.91;5002077;28;20041;-76
2023/02/17 08:03:02;;;;;;;42.93;19.67;;;;;;;8.00;100.00;100356.72;5023420;28;20029;-76
2023/02/17 08:05:27;;;;;;;44.93;18.77;;;;;;;8.00;100.00;100341.59;5024336;28;20395;-76
2023/02/17 08:13:18;;;;;;;45.87;20.83;;;;;;;8.06;100.00;100341.97;5024160;28;20029;-76
2023/02/17 08:13:22;;;;;;;42.55;19.92;;;;;;;8.06;100.00;100320.72;5023895;28;20107;-76
2023/02/17 08:15:48;;;;;;;39.72;18.90;;;;;;;8.05;100.00;100317.19;5006475;28;20044;-76
2023/02/17 08:18:13;;;;;;;40.07;18.57;;;;;;;8.07;100.00;100311.72;5024475;28;20026;-75
2023/02/17 08:20:38;;;;;;;39.43;18.23;;;;;;;8.12;100.00;100299.63;5023922;28;20037;-75
2023/02/17 08:23:04;;;;;;;38.03;17.40;;;;;;;8.10;100.00;100296.31;5022917;28;20026;-75
2023/02/17 08:25:34;;;;;;;34.57;16.53;;;;;;;8.11;100.00;100295.31;5022895;28;20041;-75
2023/02/17 08:28:00;;;;;;;37.35;17.48;;;;;;;8.09;100.00;100296.47;5022890;28;20034;-75
2023/02/17 08:30:26;;;;;;;;;;;;;;;8.09;100.00;100285.81;5024203;28;20017;-74
2023/02/17 08:32:51;;;;;;;37.08;15.25;;;;;;;8.04;100.00;100284.47;5009953;28;19913;-75
2023/02/17 08:35:18;;;;;;;38.70;16.93;;;;;;;8.07;100.00;100270.03;4993648;28;20496;-75
2023/02/17 08:37:43;;;;;;;34.58;16.38;;;;;;;8.01;100.00;100252.88;5027663;28;20567;-75
2023/02/17 08:40:09;;;;;;;34.22;16.50;;;;;;;8.04;100.00;100257.88;5011842;28;20084;-75
2023/02/17 08:42:34;;;;;;;36.00;15.60;;;;;;;8.04;100.00;100244.59;5027455;28;20029;-75
2023/02/17 08:45:00;;;;;;;38.07;17.63;;;;;;;8.10;100.00;100244.94;5026014;28;20395;-75
2023/02/17 08:47:25;;;;;;;34.17;16.73;;;;;;;8.10;100.00;100247.59;5026372;28;20025;-75
2023/02/17 08:49:50;;;;;;;38.07;16.37;;;;;;;8.09;100.00;100240.63;5027415;28;20390;-75
2023/02/17 08:52:16;;;;;;;39.07;17.33;;;;;;;8.06;100.00;100230.31;5010047;28;20114;-75
2023/02/17 08:54:41;;;;;;;46.47;19.13;;;;;;;8.12;100.00;100233.16;5021425;28;20033;-75
2023/02/17 08:57:06;;;;;;;35.47;17.40;;;;;;;8.13;100.00;100229.53;5011405;28;20464;-75
2023/02/17 08:59:32;;;;;;;38.30;17.73;;;;;;;8.12;100.00;100224.34;5025784;28;20084;-75
2023/02/17 09:01:57;;;;;;;36.90;18.53;;;;;;;8.13;100.00;100223.38;5026012;28;20048;-75
2023/02/17 09:04:23;;;;;;;40.47;17.80;;;;;;;8.10;100.00;100213.91;5011625;28;20049;-75
2023/02/17 09:07:00;;;;;;;41.65;17.98;;;;;;;8.06;100.00;100203.72;5011497;28;20641;-77
2023/02/17 09:09:28;;;;;;;36.15;16.70;;;;;;;8.12;100.00;100206.56;5026110;28;20380;-75
2023/02/17 09:11:56;;;;;;;37.10;16.40;;;;;;;8.13;100.00;100208.25;5009812;28;20115;-75
2023/02/17 09:14:25;;;;;;;37.83;16.20;;;;;;;8.15;100.00;100221.38;5026925;28;20037;-76
2023/02/17 09:16:51;;;;;;;34.78;14.95;;;;;;;8.18;100.00;100210.44;5026832;28;20037;-76
2023/02/17 09:19:17;;;;;;;29.85;15.98;;;;;;;8.23;100.00;100218.75;5026810;28;20108;-75
2023/02/17 09:21:42;;;;;;;32.40;13.65;;;;;;;8.20;100.00;100216.41;5025705;28;20132;-77
2023/02/17 09:24:07;;;;;;;29.27;13.47;;;;;;;8.23;100.00;100224.91;5009122;28;20045;-77
2023/02/17 09:26:35;;;;;;;33.90;14.47;;;;;;;8.19;100.00;100223.56;5025483;28;20029;-76
2023/02/17 09:29:02;;;;;;;34.35;14.80;;;;;;;8.16;100.00;100236.34;5009579;28;20514;-76
2023/02/17 09:31:29;;;;;;;32.22;14.80;;;;;;;8.16;100.00;100223.88;5026120;28;20401;-77
2023/02/17 09:33:54;;;;;;;31.95;13.60;;;;;;;8.19;100.00;100225.38;5010149;28;20289;-79
2023/02/17 09:36:23;;;;;;;27.73;14.18;;;;;;;8.19;100.00;100228.88;4994888;28;20032;-77
2023/02/17 09:38:49;;;;;;;24.92;11.90;;;;;;;8.19;100.00;100234.22;5026872;28;20034;-76
2023/02/17 09:41:21;;;;;;;27.70;12.13;;;;;;;8.14;100.00;100222.38;5025066;28;20056;-79
2023/02/17 09:43:47;;;;;;;23.85;11.45;;;;;;;8.19;100.00;100218.25;5008717;28;20037;-76
2023/02/17 09:46:27;;;;;;;22.23;10.25;;;;;;;8.17;100.00;100204.28;5025218;28;20414;-77
2023/02/17 09:48:57;;;;;;;21.38;9.75;;;;;;;8.19;100.00;100190.81;5009127;28;20415;-77
2023/02/17 09:51:38;;;;;;;20.15;8.60;;;;;;;8.24;100.00;100189.34;5027018;28;20068;-77
2023/02/17 09:54:21;;;;;;;19.52;8.63;;;;;;;8.25;100.00;100169.72;5023465;28;20034;-77
2023/02/17 09:56:51;;;;;;;17.83;8.85;;;;;;;8.28;100.00;100178.38;5026955;28;20124;-76
2023/02/17 09:59:41;;;;;;;15.18;7.78;;;;;;;8.25;100.00;100158.25;5028446;28;20041;-77
2023/02/17 10:02:15;;;;;;;17.55;8.27;;;;;;;8.29;100.00;100170.25;5012036;28;20052;-76
2023/02/17 10:04:46;;;;;;;14.05;6.70;;;;;;;8.27;100.00;100156.28;5026284;28;20485;-77
2023/02/17 10:07:29;;;;;;;14.75;6.80;;;;;;;8.31;100.00;100140.81;5003670;28;20037;-76
2023/02/17 10:10:07;;;;;;;17.73;8.05;;;;;;;8.36;100.00;100149.16;5026961;28;20114;-78
2023/02/17 10:12:42;;;;;;;14.10;7.10;;;;;;;8.42;100.00;100146.69;5028107;28;20104;-75
2023/02/17 10:15:15;;;;;;;14.40;7.13;;;;;;;8.41;100.00;100152.19;5027150;28;20044;-76
2023/02/17 10:17:49;;;;;;;13.18;6.07;;;;;;;8.40;100.00;100159.31;4994027;28;20052;-76
2023/02/17 10:20:19;;;;;;;11.40;6.03;;;;;;;8.41;100.00;100152.19;5004585;28;20052;-76
2023/02/17 10:22:51;;;;;;;9.48;5.38;;;;;;;8.48;100.00;100144.41;5028713;28;20076;-76
2023/02/17 10:25:23;;;;;;;13.13;6.32;;;;;;;8.44;100.00;100136.72;5010598;28;20043;-76
2023/02/17 10:27:57;;;;;;;11.98;5.93;;;;;;;8.39;100.00;100139.00;5009850;28;20068;-80
2023/02/17 10:30:25;;;;;;;9.52;5.43;;;;;;;8.39;100.00;100144.34;5009691;28;20129;-76
2023/02/17 10:33:22;;;;;;;11.23;5.90;;;;;;;8.37;100.00;100146.31;5027293;28;20481;-76
2023/02/17 10:35:50;;;;;;;11.93;6.20;;;;;;;8.38;100.00;100158.63;5026354;28;20025;-75
2023/02/17 10:38:30;;;;;;;10.88;5.18;;;;;;;8.41;100.00;100160.16;5026318;28;20037;-76
2023/02/17 10:40:58;;;;;;;12.88;5.57;;;;;;;8.39;100.00;100144.34;5026111;28;20087;-75
2023/02/17 10:43:30;;;;;;;11.07;5.40;;;;;;;8.40;100.00;100132.72;5027072;28;20025;-77
2023/02/17 10:45:58;;;;;;;13.77;6.30;;;;;;;8.42;100.00;100129.91;5026183;28;20040;-75
2023/02/17 10:48:33;;;;;;;12.23;6.25;;;;;;;8.42;100.00;100137.88;5026061;28;20064;-75
2023/02/17 10:51:00;;;;;;;12.35;5.43;;;;;;;8.47;100.00;100114.28;5025651;28;20605;-75
2023/02/17 10:53:31;;;;;;;11.80;6.60;;;;;;;8.47;100.00;100119.59;4993147;28;20120;-76
2023/02/17 10:56:13;;;;;;;14.13;7.10;;;;;;;8.49;100.00;100127.44;5011546;28;20037;-76
2023/02/17 10:58:53;;;;;;;16.65;6.63;;;;;;;8.51;100.00;100130.75;4991655;28;20044;-77
2023/02/17 11:01:19;;;;;;;14.45;6.32;;;;;;;8.61;100.00;100115.47;5019274;28;20883;-79
2023/02/17 11:03:44;;;;;;;11.57;5.18;;;;;;;8.60;100.00;100124.44;4991230;28;20036;-79
2023/02/17 11:06:21;;;;;;;16.33;7.37;;;;;;;8.65;100.00;100114.97;5024071;28;20038;-76
2023/02/17 11:08:54;;;;;;;12.60;6.47;;;;;;;8.70;100.00;100121.63;5008709;28;20034;-76
2023/02/17 11:11:25;;;;;;;14.68;6.30;;;;;;;8.63;100.00;100116.94;5006392;28;20053;-76
2023/02/17 11:14:05;;;;;;;15.02;6.60;;;;;;;8.57;100.00;100120.28;5022643;28;20540;-75
2023/02/17 11:16:46;;;;;;;13.25;6.45;;;;;;;8.49;100.00;100098.16;5022607;28;20049;-76
2023/02/17 11:19:32;;;;;;;15.38;7.70;;;;;;;8.50;100.00;100102.47;5016850;28;20052;-77
2023/02/17 11:21:59;;;;;;;15.50;6.68;;;;;;;8.48;100.00;100107.16;5022090;28;20573;-77